Time;durP1;ratioP1;P1;durP2;ratioP2;P2;SDS_P1;SDS_P2;PMS_P1;PMS_P2;Temp;Humidity;BMP_temperature;BMP_pressure;BME280_temperature;BME280_humidity;BME280_pressure;Samples;Min_cycle;Max_cycle;Signal;HPM_P1;HPM_P2
2023/05/20 00:00:26;;;;;;;6.37;3.73;;;;;;;18.91;61.62;99142.38;4919112;29;20175;-88
2023/05/20 00:02:52;;;;;;;8.67;4.23;;;;;;;19.02;61.60;99144.13;4918920;29;20284;-88
2023/05/20 00:05:17;;;;;;;8.30;3.90;;;;;;;19.02;61.67;99142.28;4918981;29;20263;-88
2023/05/20 00:07:43;;;;;;;11.60;3.97;;;;;;;18.77;62.24;99149.84;4919649;29;20187;-88
2023/05/20 00:10:09;;;;;;;8.93;4.47;;;;;;;18.83;62.02;99146.66;4919292;29;20546;-88
2023/05/20 00:12:34;;;;;;;9.20;4.17;;;;;;;18.70;62.56;99141.59;4917489;29;20248;-87
2023/05/20 00:15:00;;;;;;;9.03;4.47;;;;;;;18.87;62.05;99138.31;4914879;29;20348;-88
2023/05/20 00:17:27;;;;;;;8.83;3.93;;;;;;;18.78;62.18;99135.59;4899945;29;20211;-88
2023/05/20 00:19:53;;;;;;;7.07;4.17;;;;;;;18.83;61.75;99134.25;4900268;29;20315;-88
2023/05/20 00:22:18;;;;;;;10.77;3.77;;;;;;;18.88;61.91;99132.03;4899931;29;20282;-88
2023/05/20 00:24:44;;;;;;;9.83;3.90;;;;;;;18.86;61.66;99135.78;4914740;29;20193;-87
2023/05/20 00:27:09;;;;;;;8.00;3.80;;;;;;;18.94;61.21;99139.47;4900401;29;20238;-87
2023/05/20 00:29:35;;;;;;;6.27;3.73;;;;;;;18.99;60.88;99131.09;4914583;29;20182;-87
2023/05/20 00:32:00;;;;;;;8.67;4.07;;;;;;;18.89;60.82;99122.25;4918674;29;20182;-88
2023/05/20 00:34:26;;;;;;;5.40;2.90;;;;;;;18.87;60.88;99119.72;4917666;29;20615;-88
2023/05/20 00:36:51;;;;;;;8.73;3.97;;;;;;;18.77;61.01;99108.19;4918536;29;20182;-87
2023/05/20 00:39:16;;;;;;;9.13;4.47;;;;;;;18.89;60.80;99106.31;4918787;29;20193;-87
2023/05/20 00:41:42;;;;;;;12.00;4.30;;;;;;;18.87;60.69;99103.78;4918311;29;20214;-87
2023/05/20 00:44:07;;;;;;;6.63;3.80;;;;;;;18.77;60.92;99105.53;4918735;29;20178;-87
2023/05/20 00:46:34;;;;;;;7.20;3.93;;;;;;;18.64;61.18;99104.91;4918373;29;20537;-87
2023/05/20 00:49:00;;;;;;;8.37;3.57;;;;;;;18.38;62.01;99111.59;4918196;29;20251;-87
2023/05/20 00:51:26;;;;;;;8.10;3.80;;;;;;;18.52;61.59;99110.44;4918795;29;20182;-88
2023/05/20 00:53:52;;;;;;;8.33;4.00;;;;;;;18.42;62.01;99111.19;4918111;29;20543;-86
2023/05/20 00:56:19;;;;;;;9.00;4.23;;;;;;;18.47;61.87;99108.19;4918189;29;20197;-87
2023/05/20 00:58:44;;;;;;;7.03;4.00;;;;;;;18.42;62.04;99113.03;4918401;29;20617;-88
2023/05/20 01:01:10;;;;;;;9.10;4.03;;;;;;;18.38;62.13;99117.75;4918114;29;20281;-87
2023/05/20 01:03:35;;;;;;;5.70;3.17;;;;;;;18.53;61.42;99118.25;4918093;29;20186;-89
2023/05/20 01:06:02;;;;;;;9.63;4.03;;;;;;;18.70;61.07;99117.69;4918008;29;20622;-87
2023/05/20 01:08:27;;;;;;;6.77;3.93;;;;;;;18.69;60.66;99113.34;4917918;29;20191;-87
2023/05/20 01:11:02;;;;;;;8.90;3.43;;;;;;;18.65;60.72;99114.59;4917953;29;20186;-87
2023/05/20 01:13:35;;;;;;;10.20;4.13;;;;;;;18.71;60.59;99111.38;4918482;29;20166;-88
2023/05/20 01:16:03;;;;;;;6.50;3.10;;;;;;;18.56;60.65;99111.84;4916866;29;20199;-87
2023/05/20 01:18:30;;;;;;;8.70;3.53;;;;;;;18.40;61.17;99107.81;4918148;29;20182;-88
2023/05/20 01:21:00;;;;;;;6.07;2.90;;;;;;;18.49;60.80;99108.06;4917697;29;20178;-87
2023/05/20 01:23:46;;;;;;;9.93;4.30;;;;;;;18.54;61.04;99105.84;4917748;29;20182;-87
2023/05/20 01:26:15;;;;;;;8.30;3.23;;;;;;;18.62;60.69;99109.53;4917731;29;20205;-87
2023/05/20 01:28:44;;;;;;;6.57;3.17;;;;;;;18.55;60.54;99103.06;4917651;29;20196;-88
2023/05/20 01:31:17;;;;;;;8.77;4.00;;;;;;;18.56;60.52;99103.88;4917579;29;20178;-89
2023/05/20 01:33:44;;;;;;;8.70;4.03;;;;;;;18.54;60.82;99100.53;4917585;29;20725;-87
2023/05/20 01:36:11;;;;;;;8.03;3.50;;;;;;;18.61;60.91;99097.22;4917544;29;20178;-87
2023/05/20 01:38:38;;;;;;;11.03;3.73;;;;;;;18.64;60.35;99107.56;4917395;29;20190;-88
2023/05/20 01:41:05;;;;;;;7.47;3.97;;;;;;;18.57;60.68;99106.44;4916431;29;20221;-89
2023/05/20 01:43:31;;;;;;;7.27;3.60;;;;;;;18.50;61.27;99107.91;4917445;29;20644;-87
2023/05/20 01:45:56;;;;;;;7.03;4.00;;;;;;;18.24;61.91;99109.25;4916686;29;20190;-88
2023/05/20 01:48:22;;;;;;;8.47;3.77;;;;;;;18.08;62.81;99106.22;4917603;29;20249;-87
2023/05/20 01:50:47;;;;;;;6.83;3.80;;;;;;;18.25;62.22;99097.66;4917214;29;20201;-87
2023/05/20 01:53:13;;;;;;;8.03;4.27;;;;;;;17.97;63.17;99095.66;4916364;29;20292;-88
2023/05/20 01:55:38;;;;;;;10.17;4.00;;;;;;;17.98;63.43;99099.97;4917251;29;20521;-87
2023/05/20 01:58:04;;;;;;;9.30;4.47;;;;;;;18.12;63.61;99104.97;4917338;29;20564;-87
2023/05/20 02:00:31;;;;;;;9.40;4.30;;;;;;;18.09;63.88;99102.59;4917507;29;20242;-87
2023/05/20 02:02:57;;;;;;;8.33;4.27;;;;;;;18.12;63.96;99104.97;4917372;29;20202;-87
2023/05/20 02:05:22;;;;;;;9.37;4.73;;;;;;;17.96;64.26;99099.25;4917141;29;20660;-87
2023/05/20 02:07:48;;;;;;;7.40;4.17;;;;;;;17.97;64.66;99098.31;4917113;29;20552;-88
2023/05/20 02:10:13;;;;;;;5.33;3.10;;;;;;;18.02;63.86;99096.97;4917239;29;20273;-88
2023/05/20 02:12:39;;;;;;;7.07;3.83;;;;;;;17.97;63.82;99088.56;4917604;29;20249;-88
2023/05/20 02:15:05;;;;;;;10.87;4.00;;;;;;;18.13;63.02;99086.28;4917096;29;20219;-87
2023/05/20 02:17:30;;;;;;;13.43;3.90;;;;;;;18.00;62.85;99095.41;4916006;29;20201;-87
2023/05/20 02:19:56;;;;;;;9.40;4.10;;;;;;;18.11;62.33;99106.78;4916057;29;20636;-87
2023/05/20 02:22:21;;;;;;;9.17;4.00;;;;;;;18.09;62.56;99100.78;4916887;29;20627;-87
2023/05/20 02:24:46;;;;;;;10.93;4.57;;;;;;;18.15;61.99;99099.41;4917232;29;20178;-87
2023/05/20 02:27:12;;;;;;;5.63;3.57;;;;;;;18.22;61.79;99096.13;4916957;29;20182;-87
2023/05/20 02:29:37;;;;;;;7.17;3.60;;;;;;;18.23;61.65;99099.63;4916943;29;20218;-87
2023/05/20 02:32:03;;;;;;;7.33;3.47;;;;;;;18.07;61.86;99093.91;4916851;29;20174;-87
2023/05/20 02:34:30;;;;;;;10.40;4.23;;;;;;;18.08;61.66;99098.25;4916749;29;20610;-88
2023/05/20 02:36:56;;;;;;;5.97;3.57;;;;;;;17.97;61.72;99103.63;4918734;29;20245;-87
2023/05/20 02:39:21;;;;;;;9.97;3.53;;;;;;;17.75;62.54;99102.75;4920936;29;20182;-87
2023/05/20 02:41:47;;;;;;;8.80;3.73;;;;;;;17.85;62.95;99101.97;4920834;29;20252;-88
2023/05/20 02:44:13;;;;;;;6.67;4.30;;;;;;;17.84;63.29;99097.66;4920556;29;20261;-87
2023/05/20 02:46:38;;;;;;;8.07;3.83;;;;;;;17.83;63.66;99094.16;4920850;29;20687;-87
2023/05/20 02:49:03;;;;;;;9.13;4.67;;;;;;;17.73;64.22;99094.06;4920352;29;20186;-89
2023/05/20 02:51:30;;;;;;;10.27;5.00;;;;;;;17.57;64.54;99098.94;4920448;29;20516;-89
2023/05/20 02:53:56;;;;;;;8.50;4.57;;;;;;;17.73;64.05;99099.38;4919464;29;20581;-87
2023/05/20 02:56:21;;;;;;;8.23;4.63;;;;;;;17.72;63.88;99108.28;4920179;29;20648;-88
2023/05/20 02:58:47;;;;;;;7.33;3.97;;;;;;;17.66;64.43;99102.66;4920288;29;20182;-87
2023/05/20 03:01:13;;;;;;;9.80;4.73;;;;;;;17.76;63.79;99114.19;4920158;29;20210;-86
2023/05/20 03:03:39;;;;;;;13.10;4.73;;;;;;;17.95;63.33;99116.16;4920204;29;20625;-87
2023/05/20 03:06:06;;;;;;;8.87;4.37;;;;;;;17.94;63.50;99122.44;4920182;29;20185;-87
2023/05/20 03:08:33;;;;;;;8.93;4.17;;;;;;;17.97;63.34;99125.69;4920429;29;20298;-87
2023/05/20 03:10:59;;;;;;;9.03;3.83;;;;;;;17.83;63.80;99119.81;4919189;29;20185;-88
2023/05/20 03:13:24;;;;;;;9.27;4.80;;;;;;;17.92;64.11;99117.25;4919109;29;20190;-88
2023/05/20 03:15:50;;;;;;;13.77;4.90;;;;;;;17.73;64.21;99112.63;4918959;29;20282;-88
2023/05/20 03:18:15;;;;;;;9.77;4.83;;;;;;;17.85;63.97;99118.72;4920129;29;20186;-87
2023/05/20 03:20:41;;;;;;;9.30;4.10;;;;;;;17.94;63.53;99119.78;4919729;29;20608;-88
2023/05/20 03:23:07;;;;;;;10.40;4.63;;;;;;;17.84;63.79;99116.22;4919835;29;20567;-89
2023/05/20 03:25:33;;;;;;;10.43;4.23;;;;;;;17.87;63.23;99121.25;4919923;29;20187;-88
2023/05/20 03:27:58;;;;;;;8.97;4.80;;;;;;;17.84;63.31;99113.56;4919811;29;20248;-88
2023/05/20 03:30:24;;;;;;;10.73;4.17;;;;;;;17.93;63.29;99120.72;4919144;29;20203;-88
2023/05/20 03:32:50;;;;;;;10.83;4.93;;;;;;;18.02;63.00;99127.94;4920012;29;20174;-87
2023/05/20 03:35:16;;;;;;;11.73;5.17;;;;;;;18.05;63.05;99117.09;4919710;29;20651;-88
2023/05/20 03:37:41;;;;;;;9.27;4.13;;;;;;;18.16;62.65;99122.34;4919654;29;20183;-87
2023/05/20 03:40:11;;;;;;;9.23;4.27;;;;;;;18.13;62.06;99118.09;4919853;29;20559;-88
2023/05/20 03:42:37;;;;;;;10.50;4.93;;;;;;;18.26;61.86;99118.75;4920074;29;20289;-88
2023/05/20 03:45:03;;;;;;;7.50;3.80;;;;;;;18.27;62.08;99119.59;4919789;29;20174;-88
2023/05/20 03:47:29;;;;;;;8.27;4.03;;;;;;;18.13;61.29;99115.44;4918624;29;20197;-88
2023/05/20 03:49:54;;;;;;;10.70;4.83;;;;;;;18.23;61.79;99128.81;4919951;29;20189;-87
2023/05/20 03:52:20;;;;;;;11.80;4.00;;;;;;;18.34;61.36;99124.25;4919585;29;20633;-87
2023/05/20 03:54:46;;;;;;;8.70;4.03;;;;;;;18.45;60.82;99125.19;4919282;29;20189;-87
2023/05/20 03:57:11;;;;;;;7.57;4.17;;;;;;;18.57;60.43;99129.47;4918316;29;20576;-87
2023/05/20 03:59:37;;;;;;;13.87;4.37;;;;;;;18.69;59.96;99131.06;4919542;29;20182;-87
2023/05/20 04:02:03;;;;;;;5.63;3.90;;;;;;;18.67;60.54;99123.25;4919048;29;20645;-87
2023/05/20 04:04:30;;;;;;;10.23;4.73;;;;;;;18.58;60.76;99131.16;4918218;29;20183;-87
2023/05/20 04:06:55;;;;;;;12.17;4.33;;;;;;;18.60;60.73;99127.41;4919396;29;20241;-87
2023/05/20 04:09:24;;;;;;;7.17;3.90;;;;;;;18.64;60.44;99125.31;4919315;29;20194;-87
2023/05/20 04:11:49;;;;;;;6.77;3.60;;;;;;;18.74;60.00;99129.72;4919130;29;20198;-87
2023/05/20 04:14:17;;;;;;;7.50;3.53;;;;;;;18.66;60.06;99131.31;4919193;29;20178;-87
2023/05/20 04:16:44;;;;;;;7.13;3.80;;;;;;;18.75;60.18;99135.88;4918953;29;20226;-87
2023/05/20 04:19:10;;;;;;;7.37;4.47;;;;;;;18.92;59.69;99133.44;4918759;29;20189;-87
2023/05/20 04:21:36;;;;;;;10.43;3.80;;;;;;;19.06;59.19;99134.03;4918844;29;20345;-88
2023/05/20 04:24:01;;;;;;;7.70;3.87;;;;;;;19.17;59.40;99139.25;4918821;29;20182;-87
2023/05/20 04:26:27;;;;;;;8.90;3.90;;;;;;;19.18;59.14;99140.97;4918953;29;20188;-88
2023/05/20 04:28:54;;;;;;;7.97;3.77;;;;;;;19.32;58.82;99130.78;4918765;29;20257;-88
2023/05/20 04:31:25;;;;;;;7.97;3.93;;;;;;;19.41;58.69;99138.00;4918566;29;20283;-89
2023/05/20 04:33:53;;;;;;;7.17;3.70;;;;;;;19.49;58.15;99132.00;4918609;29;20542;-88
2023/05/20 04:36:19;;;;;;;8.50;4.00;;;;;;;19.52;57.53;99137.03;4918610;29;20622;-88
2023/05/20 04:38:45;;;;;;;10.07;3.57;;;;;;;19.60;56.89;99129.22;4918495;29;20185;-88
2023/05/20 04:41:11;;;;;;;7.37;3.70;;;;;;;19.69;58.12;99133.69;4917457;29;20365;-87
2023/05/20 04:43:38;;;;;;;5.67;3.20;;;;;;;19.74;57.01;99136.78;4917778;29;20590;-89
2023/05/20 04:46:08;;;;;;;10.43;4.33;;;;;;;19.87;56.19;99137.34;4917291;29;20192;-89
2023/05/20 04:48:33;;;;;;;8.50;3.73;;;;;;;20.04;56.00;99144.66;4918641;29;20183;-87
2023/05/20 04:50:59;;;;;;;8.33;3.93;;;;;;;20.05;56.27;99141.00;4918300;29;20244;-88
2023/05/20 04:53:24;;;;;;;6.83;3.83;;;;;;;20.36;55.17;99144.38;4917355;29;20194;-88
2023/05/20 04:55:53;;;;;;;7.30;3.50;;;;;;;20.60;54.01;99151.91;4918090;29;20186;-88
2023/05/20 04:58:23;;;;;;;6.70;3.63;;;;;;;20.67;53.53;99148.56;4918030;29;20179;-88
2023/05/20 05:00:49;;;;;;;6.20;3.10;;;;;;;20.75;53.46;99145.97;4918416;29;20171;-88
2023/05/20 05:03:14;;;;;;;7.93;3.67;;;;;;;20.81;54.22;99152.56;4918260;29;20206;-89
2023/05/20 05:05:41;;;;;;;10.77;4.33;;;;;;;21.10;53.12;99149.81;4917914;29;20210;-87
2023/05/20 05:08:08;;;;;;;8.47;4.53;;;;;;;21.24;52.32;99147.53;4918247;29;20187;-88
2023/05/20 05:10:34;;;;;;;6.53;3.17;;;;;;;21.33;51.71;99148.47;4917998;29;20194;-87
2023/05/20 05:13:00;;;;;;;7.20;3.63;;;;;;;21.35;52.04;99150.00;4918475;29;20253;-88
2023/05/20 05:15:26;;;;;;;9.10;3.90;;;;;;;21.70;51.38;99151.91;4917782;29;20645;-88
2023/05/20 05:17:52;;;;;;;6.93;3.57;;;;;;;21.79;51.04;99148.34;4918106;29;20648;-89
2023/05/20 05:20:17;;;;;;;10.63;3.57;;;;;;;21.89;50.59;99149.13;4916748;29;20179;-86
2023/05/20 05:22:43;;;;;;;6.57;3.50;;;;;;;21.50;50.99;99152.16;4917762;29;20668;-87
2023/05/20 05:25:10;;;;;;;6.03;3.23;;;;;;;21.81;52.19;99151.69;4917070;29;20186;-87
2023/05/20 05:27:36;;;;;;;5.90;3.50;;;;;;;21.81;51.22;99153.50;4917950;29;20273;-87
2023/05/20 05:30:02;;;;;;;10.00;4.07;;;;;;;21.81;50.79;99157.03;4917961;29;20692;-90
2023/05/20 05:32:28;;;;;;;8.83;4.07;;;;;;;22.13;50.97;99156.53;4917652;29;20186;-88
2023/05/20 05:34:53;;;;;;;8.67;3.87;;;;;;;22.10;49.87;99153.31;4917572;29;20185;-88
2023/05/20 05:37:20;;;;;;;10.40;4.10;;;;;;;22.14;49.91;99160.91;4917523;29;20554;-87
2023/05/20 05:39:45;;;;;;;8.30;3.70;;;;;;;22.38;49.80;99155.75;4916548;29;20185;-87
2023/05/20 05:42:11;;;;;;;10.23;3.23;;;;;;;22.51;49.40;99166.88;4917388;29;20206;-88
2023/05/20 05:44:36;;;;;;;6.47;3.67;;;;;;;22.49;49.59;99168.03;4916553;29;20609;-88
2023/05/20 05:47:02;;;;;;;7.20;3.77;;;;;;;22.50;49.96;99164.38;4916735;29;20178;-88
2023/05/20 05:49:27;;;;;;;6.67;3.40;;;;;;;22.60;50.18;99165.94;4917656;29;20175;-88
2023/05/20 05:51:55;;;;;;;9.80;4.20;;;;;;;22.23;49.68;99175.97;4916449;29;20206;-88
2023/05/20 05:54:20;;;;;;;6.40;3.83;;;;;;;21.99;51.05;99171.25;4917202;29;20212;-88
2023/05/20 05:56:46;;;;;;;6.43;3.83;;;;;;;22.34;51.14;99172.25;4916254;29;20178;-88
2023/05/20 05:59:11;;;;;;;9.27;3.70;;;;;;;22.60;50.54;99171.28;4916985;29;20272;-88
2023/05/20 06:01:37;;;;;;;6.27;3.80;;;;;;;22.63;49.95;99165.69;4916178;29;20660;-88
2023/05/20 06:04:03;;;;;;;11.07;4.30;;;;;;;22.76;50.65;99173.28;4917376;29;20253;-88
2023/05/20 06:06:28;;;;;;;7.53;3.53;;;;;;;22.75;48.81;99168.06;4917355;29;20183;-88
2023/05/20 06:08:54;;;;;;;9.43;4.07;;;;;;;22.73;50.14;99164.72;4917401;29;20178;-87
2023/05/20 06:11:21;;;;;;;7.20;3.90;;;;;;;22.78;49.99;99167.75;4916544;29;20174;-90
2023/05/20 06:13:49;;;;;;;5.50;2.80;;;;;;;22.98;50.09;99171.91;4900336;29;20183;-90
2023/05/20 06:16:15;;;;;;;8.30;3.73;;;;;;;23.23;49.19;99179.06;4898259;29;20657;-88
2023/05/20 06:18:41;;;;;;;9.30;4.00;;;;;;;23.13;49.28;99183.69;4898134;29;20217;-88
2023/05/20 06:21:06;;;;;;;6.63;4.00;;;;;;;23.30;49.03;99180.09;4912849;29;20183;-88
2023/05/20 06:23:32;;;;;;;8.67;4.00;;;;;;;23.29;47.92;99178.44;4916212;29;20550;-88
2023/05/20 06:25:58;;;;;;;8.03;4.43;;;;;;;23.33;49.90;99174.44;4916014;29;20620;-88
2023/05/20 06:28:25;;;;;;;10.43;4.43;;;;;;;23.49;49.86;99171.88;4916908;29;20201;-88
2023/05/20 06:30:53;;;;;;;6.87;3.50;;;;;;;23.73;49.44;99171.94;4915891;29;20221;-88
2023/05/20 06:33:19;;;;;;;7.70;3.83;;;;;;;23.84;48.41;99160.94;4917380;29;20529;-89
2023/05/20 06:35:44;;;;;;;11.27;3.90;;;;;;;23.98;48.06;99166.66;4916861;29;20206;-89
2023/05/20 06:38:10;;;;;;;7.50;3.60;;;;;;;23.95;47.75;99164.31;4913917;29;20233;-88
2023/05/20 06:40:38;;;;;;;9.37;3.67;;;;;;;23.69;47.78;99169.75;4902948;29;20354;-88
2023/05/20 06:43:04;;;;;;;8.60;3.77;;;;;;;23.65;48.54;99166.56;4915606;29;20241;-90
2023/05/20 06:45:32;;;;;;;7.23;3.77;;;;;;;23.91;49.65;99168.31;4915927;29;20222;-88
2023/05/20 06:47:59;;;;;;;5.87;3.47;;;;;;;24.00;46.32;99164.66;4915310;29;20249;-89
2023/05/20 06:50:24;;;;;;;6.63;3.50;;;;;;;24.10;47.32;99160.00;4916901;29;20186;-88
2023/05/20 06:52:52;;;;;;;8.83;4.30;;;;;;;23.92;45.85;99160.13;4916014;29;20190;-88
2023/05/20 06:55:17;;;;;;;8.30;3.70;;;;;;;24.11;46.70;99153.66;4915703;29;20178;-89
2023/05/20 06:57:43;;;;;;;6.53;3.63;;;;;;;24.11;48.88;99159.03;4915789;29;20179;-87
2023/05/20 07:00:12;;;;;;;8.03;3.57;;;;;;;24.40;47.50;99164.72;4912641;29;20193;-88
2023/05/20 07:02:38;;;;;;;7.37;3.97;;;;;;;24.68;49.18;99163.38;4912553;29;20240;-88
2023/05/20 07:05:03;;;;;;;6.90;3.87;;;;;;;24.80;45.59;99156.69;4912817;29;20653;-89
2023/05/20 07:07:29;;;;;;;7.57;3.30;;;;;;;25.09;46.21;99152.59;4917993;29;20613;-88
2023/05/20 07:09:54;;;;;;;8.33;3.43;;;;;;;25.11;45.97;99148.72;4915258;29;20645;-89
2023/05/20 07:12:20;;;;;;;6.37;3.93;;;;;;;25.15;45.43;99146.53;4916389;29;20200;-88
2023/05/20 07:14:55;;;;;;;10.17;3.30;;;;;;;25.16;45.12;99146.34;4916280;29;20281;-90
2023/05/20 07:17:20;;;;;;;8.03;3.53;;;;;;;25.36;46.29;99153.00;4916323;29;20640;-89
2023/05/20 07:19:46;;;;;;;7.43;3.70;;;;;;;25.67;46.34;99165.63;4916665;29;20192;-89
2023/05/20 07:22:11;;;;;;;5.37;3.23;;;;;;;26.15;45.45;99163.50;4916749;29;20265;-89
2023/05/20 07:24:37;;;;;;;6.33;3.63;;;;;;;26.24;45.96;99148.19;4919812;29;20664;-89
2023/05/20 07:27:02;;;;;;;8.17;3.50;;;;;;;25.67;44.39;99158.44;4919565;29;20201;-89
2023/05/20 07:29:30;;;;;;;5.07;3.20;;;;;;;25.91;45.30;99158.28;4918993;29;20217;-89
2023/05/20 07:31:56;;;;;;;7.20;3.23;;;;;;;25.84;46.07;99151.94;4919482;29;20175;-88
2023/05/20 07:34:21;;;;;;;6.33;3.33;;;;;;;25.91;43.37;99147.56;4919383;29;20195;-89
2023/05/20 07:36:48;;;;;;;7.03;3.63;;;;;;;26.31;44.75;99145.63;4919384;29;20210;-88
2023/05/20 07:39:14;;;;;;;10.13;4.13;;;;;;;26.41;42.78;99146.22;4919392;29;20266;-88
2023/05/20 07:41:40;;;;;;;5.53;3.33;;;;;;;26.50;43.88;99148.63;4919321;29;20194;-88
2023/05/20 07:44:28;;;;;;;7.80;3.67;;;;;;;26.03;44.44;99156.84;4919395;29;20625;-89
2023/05/20 07:46:58;;;;;;;6.40;3.30;;;;;;;25.81;42.45;99157.69;4919354;29;20245;-89
2023/05/20 07:49:24;;;;;;;8.93;3.77;;;;;;;25.94;42.25;99152.53;4918205;29;20340;-88
2023/05/20 07:51:49;;;;;;;6.30;3.67;;;;;;;25.73;40.81;99160.41;4918365;29;20681;-88
2023/05/20 07:54:15;;;;;;;6.37;3.27;;;;;;;25.62;41.27;99158.97;4920429;29;20206;-88
2023/05/20 07:57:06;;;;;;;;;;;;;;;;;;;;;
2023/05/20 07:59:34;;;;;;;4.93;2.77;;;;;;;25.25;41.13;99160.59;4938585;29;20596;-89
2023/05/20 08:02:02;;;;;;;6.30;2.70;;;;;;;25.29;41.81;99157.38;4929552;29;20198;-89
2023/05/20 08:04:27;;;;;;;6.10;3.60;;;;;;;25.36;42.58;99158.38;4918545;29;20194;-90
2023/05/20 08:06:58;;;;;;;7.93;2.97;;;;;;;25.26;41.16;99164.97;4918495;29;20629;-89
2023/05/20 08:09:26;;;;;;;7.30;3.27;;;;;;;25.04;41.74;99158.47;4918971;29;20220;-88
2023/05/20 08:11:51;;;;;;;9.43;3.63;;;;;;;25.13;41.84;99167.34;4919043;29;20182;-88
2023/05/20 08:14:17;;;;;;;10.67;4.50;;;;;;;25.23;41.99;99165.28;4919582;29;20185;-87
2023/05/20 08:16:52;;;;;;;;;;;;;;;;;;;;;
2023/05/20 08:19:18;;;;;;;6.47;3.27;;;;;;;25.34;42.44;99159.56;4919776;29;20177;-88
2023/05/20 08:21:54;;;;;;;9.60;4.27;;;;;;;25.24;42.70;99164.25;4918729;29;20202;-90
2023/05/20 08:24:20;;;;;;;9.47;3.83;;;;;;;25.38;42.39;99166.25;4918987;29;20171;-88
2023/05/20 08:26:45;;;;;;;20.33;6.97;;;;;;;25.58;41.11;99157.63;4918910;29;20196;-88
2023/05/20 08:29:13;;;;;;;5.50;3.63;;;;;;;25.69;40.84;99159.06;4917932;29;20274;-88
2023/05/20 08:31:39;;;;;;;12.97;4.83;;;;;;;25.85;40.42;99145.56;4918105;29;20655;-88
2023/05/20 08:34:14;;;;;;;6.97;3.47;;;;;;;26.21;39.63;99146.69;4917571;29;20198;-89
2023/05/20 08:36:40;;;;;;;7.63;3.00;;;;;;;26.16;40.04;99146.38;4918508;29;20265;-88
2023/05/20 08:39:07;;;;;;;6.67;3.97;;;;;;;26.26;40.91;99150.69;4919165;29;20701;-89
2023/05/20 08:41:39;;;;;;;6.60;3.50;;;;;;;26.35;40.57;99157.66;4918470;29;20230;-89
2023/05/20 08:44:07;;;;;;;3.93;2.90;;;;;;;26.16;40.81;99154.44;4918856;29;20171;-89
2023/05/20 08:46:34;;;;;;;6.33;3.07;;;;;;;26.23;41.03;99147.34;4918610;29;20195;-88
2023/05/20 08:49:01;;;;;;;7.50;3.23;;;;;;;26.22;40.30;99145.69;4917519;29;20202;-90
2023/05/20 08:51:26;;;;;;;5.27;3.03;;;;;;;26.04;39.74;99145.13;4918393;29;20178;-88
2023/05/20 08:53:53;;;;;;;10.40;3.40;;;;;;;26.07;39.33;99144.72;4918317;29;20680;-89
2023/05/20 08:56:20;;;;;;;6.70;3.50;;;;;;;26.16;39.86;99149.06;4917115;29;20652;-88
2023/05/20 08:58:46;;;;;;;5.73;3.03;;;;;;;26.26;40.10;99148.00;4917827;29;20273;-88
2023/05/20 09:01:12;;;;;;;6.60;3.37;;;;;;;26.27;39.99;99146.97;4917217;29;20765;-89
2023/05/20 09:03:37;;;;;;;9.27;3.37;;;;;;;26.42;41.36;99158.59;4917221;29;20245;-90
2023/05/20 09:06:07;;;;;;;6.40;3.53;;;;;;;26.75;40.46;99152.78;4917218;29;20185;-88
2023/05/20 09:08:36;;;;;;;7.07;3.67;;;;;;;26.75;39.75;99151.94;4917085;29;20186;-88
2023/05/20 09:11:01;;;;;;;7.27;3.57;;;;;;;26.78;39.63;99149.75;4918022;29;20178;-89
2023/05/20 09:13:31;;;;;;;7.10;3.33;;;;;;;26.59;38.64;99160.16;4917380;29;20651;-88
2023/05/20 09:15:59;;;;;;;7.27;3.60;;;;;;;26.23;39.00;99157.28;4917843;29;20190;-88
2023/05/20 09:18:35;;;;;;;4.73;2.87;;;;;;;26.06;39.06;99161.03;4918544;29;20589;-90
2023/05/20 09:21:05;;;;;;;9.70;3.60;;;;;;;26.02;40.72;99160.56;4917852;29;20628;-88
2023/05/20 09:23:31;;;;;;;5.83;3.40;;;;;;;25.88;40.22;99163.16;4916902;29;20257;-88
2023/05/20 09:26:00;;;;;;;5.63;3.60;;;;;;;25.89;40.57;99157.59;4918040;29;20190;-88
2023/05/20 09:28:26;;;;;;;7.03;3.47;;;;;;;25.93;41.30;99161.63;4916801;29;20200;-88
2023/05/20 09:31:01;;;;;;;10.43;3.30;;;;;;;25.84;41.50;99154.63;4917687;29;20190;-89
2023/05/20 09:33:28;;;;;;;5.93;3.20;;;;;;;25.64;40.52;99161.47;4917408;29;20197;-87
2023/05/20 09:36:06;;;;;;;4.33;2.53;;;;;;;25.49;41.61;99142.59;4917591;29;20273;-89
2023/05/20 09:38:36;;;;;;;5.63;3.63;;;;;;;25.25;42.10;99147.16;4917894;29;20657;-89
2023/05/20 09:41:07;;;;;;;7.50;3.20;;;;;;;25.43;42.00;99145.91;4917812;29;20254;-88
2023/05/20 09:43:34;;;;;;;4.90;3.10;;;;;;;25.24;42.45;99146.31;4917409;29;20206;-89
2023/05/20 09:46:00;;;;;;;5.73;3.37;;;;;;;25.39;42.85;99152.63;4916704;29;20221;-89
2023/05/20 09:48:26;;;;;;;6.67;3.97;;;;;;;25.18;42.25;99154.25;4916276;29;20549;-88
2023/05/20 09:50:54;;;;;;;5.73;3.20;;;;;;;25.27;42.65;99153.19;4917314;29;20720;-88
2023/05/20 09:53:22;;;;;;;5.37;3.03;;;;;;;25.32;43.37;99148.97;4917874;29;20608;-89
2023/05/20 09:55:49;;;;;;;4.97;2.77;;;;;;;25.44;42.80;99149.44;4916713;29;20222;-88
2023/05/20 09:58:16;;;;;;;9.10;3.53;;;;;;;25.42;43.13;99146.13;4916413;29;20269;-88
2023/05/20 10:00:41;;;;;;;5.50;3.40;;;;;;;25.55;43.54;99144.53;4916972;29;20194;-89
2023/05/20 10:03:07;;;;;;;6.03;2.80;;;;;;;25.44;41.84;99150.28;4914643;29;20278;-90
2023/05/20 10:05:44;;;;;;;6.53;3.60;;;;;;;25.38;42.29;99148.28;4910742;29;20189;-89
2023/05/20 10:08:18;;;;;;;5.07;2.60;;;;;;;25.19;42.14;99151.38;4915721;29;20572;-89
2023/05/20 10:10:54;;;;;;;7.97;3.13;;;;;;;25.32;42.49;99148.13;4915971;29;20186;-90
2023/05/20 10:14:04;;;;;;;5.97;3.27;;;;;;;25.38;44.00;99145.63;4916674;29;20181;-88
2023/05/20 10:16:57;;;;;;;6.27;3.17;;;;;;;25.42;43.15;99133.50;4907986;29;20210;-88
2023/05/20 10:19:33;;;;;;;8.70;3.33;;;;;;;25.55;43.28;99131.13;4912805;29;20206;-88
2023/05/20 10:22:13;;;;;;;5.70;3.17;;;;;;;25.72;42.26;99129.19;4916081;29;20198;-89
2023/05/20 10:24:42;;;;;;;10.00;2.93;;;;;;;25.74;43.18;99129.84;4917457;29;20269;-88
2023/05/20 10:27:13;;;;;;;5.27;3.00;;;;;;;25.69;42.10;99126.84;4917559;29;20189;-91
2023/05/20 10:29:52;;;;;;;5.97;3.10;;;;;;;25.70;41.16;99123.16;4917313;29;20205;-90
2023/05/20 10:32:32;;;;;;;5.10;3.07;;;;;;;26.03;41.70;99113.88;4917352;29;20233;-89
2023/05/20 10:35:11;;;;;;;6.30;3.20;;;;;;;26.21;40.96;99117.13;4916149;29;20558;-90
2023/05/20 10:37:43;;;;;;;7.93;2.90;;;;;;;26.48;41.61;99109.50;4915852;29;20198;-90
2023/05/20 10:40:18;;;;;;;5.87;3.10;;;;;;;26.24;38.96;99105.19;4916786;29;20190;-90
2023/05/20 10:42:46;;;;;;;5.50;2.83;;;;;;;26.26;38.98;99105.81;4917128;29;20205;-89
2023/05/20 10:45:27;;;;;;;5.67;2.70;;;;;;;26.11;40.80;99099.53;4915600;29;20198;-89
2023/05/20 10:47:55;;;;;;;6.27;3.13;;;;;;;26.03;38.94;99100.44;4916957;29;20662;-89
2023/05/20 10:50:54;;;;;;;7.73;3.13;;;;;;;25.95;39.97;99105.88;4917125;29;20257;-90
2023/05/20 10:53:30;;;;;;;5.13;3.13;;;;;;;25.84;39.49;99097.41;4913001;29;20290;-89
2023/05/20 10:55:56;;;;;;;9.87;2.80;;;;;;;26.08;40.65;99111.47;4917129;29;20163;-89
2023/05/20 10:58:35;;;;;;;5.73;3.10;;;;;;;26.07;39.54;99109.00;4920551;29;20620;-90
2023/05/20 11:01:02;;;;;;;13.83;4.23;;;;;;;26.16;40.54;99102.56;4920712;29;20224;-90
2023/05/20 11:03:36;;;;;;;4.57;2.50;;;;;;;26.23;40.14;99101.66;4919350;29;20233;-90
2023/05/20 11:06:30;;;;;;;7.17;3.07;;;;;;;26.18;40.87;99095.97;4921048;29;20170;-89
2023/05/20 11:09:04;;;;;;;6.57;2.93;;;;;;;26.36;39.64;99087.63;4920599;29;20174;-91
2023/05/20 11:11:31;;;;;;;8.70;3.43;;;;;;;26.18;38.28;99081.72;4919461;29;20166;-89
2023/05/20 11:13:59;;;;;;;6.37;3.10;;;;;;;26.22;38.78;99091.94;4920298;29;20241;-89
2023/05/20 11:16:25;;;;;;;7.73;3.23;;;;;;;26.16;39.27;99084.59;4919090;29;20650;-89
2023/05/20 11:18:51;;;;;;;4.60;2.13;;;;;;;26.30;40.97;99077.59;4920603;29;20207;-90
2023/05/20 11:21:19;;;;;;;5.67;2.97;;;;;;;26.41;41.48;99089.75;4919830;29;20261;-89
2023/05/20 11:23:45;;;;;;;6.20;2.90;;;;;;;26.14;39.93;99089.31;4919997;29;20209;-88
2023/05/20 11:26:12;;;;;;;5.47;2.40;;;;;;;26.22;38.43;99081.19;4920490;29;20214;-89
2023/05/20 11:28:38;;;;;;;7.13;2.63;;;;;;;26.54;38.54;99079.22;4920124;29;20187;-89
2023/05/20 11:31:06;;;;;;;4.63;2.47;;;;;;;26.80;38.24;99079.63;4920284;29;20210;-90
2023/05/20 11:33:32;;;;;;;3.93;2.17;;;;;;;26.82;37.77;99082.97;4919808;29;20557;-90
2023/05/20 11:36:03;;;;;;;3.90;2.20;;;;;;;27.13;39.07;99069.31;4919389;29;20621;-89